sensor_id;sensor_type;location;lat;lon;timestamp;pressure;altitude;pressure_sealevel;temperature;humidity
72414;BME280;60995;52.154;4.498;2023-01-24T00:00:19;103904.22;;;4.90;70.64
72414;BME280;60995;52.154;4.498;2023-01-24T00:02:35;103906.91;;;4.89;70.80
72414;BME280;60995;52.154;4.498;2023-01-24T00:04:51;103908.75;;;4.87;70.76
72414;BME280;60995;52.154;4.498;2023-01-24T00:07:07;103913.25;;;4.85;70.61
72414;BME280;60995;52.154;4.498;2023-01-24T00:09:24;103907.84;;;4.88;70.17
72414;BME280;60995;52.154;4.498;2023-01-24T00:11:40;103909.56;;;4.92;70.79
72414;BME280;60995;52.154;4.498;2023-01-24T00:13:56;103897.19;;;4.82;70.28
72414;BME280;60995;52.154;4.498;2023-01-24T00:16:13;103900.69;;;4.87;70.49
72414;BME280;60995;52.154;4.498;2023-01-24T00:18:31;103891.63;;;4.91;70.70
72414;BME280;60995;52.154;4.498;2023-01-24T00:20:48;103897.09;;;4.88;70.31
72414;BME280;60995;52.154;4.498;2023-01-24T00:23:04;103895.00;;;5.04;70.87
72414;BME280;60995;52.154;4.498;2023-01-24T00:25:20;103895.47;;;4.74;70.81
72414;BME280;60995;52.154;4.498;2023-01-24T00:27:37;103899.09;;;4.72;70.63
72414;BME280;60995;52.154;4.498;2023-01-24T00:29:53;103898.84;;;4.89;70.43
72414;BME280;60995;52.154;4.498;2023-01-24T00:32:09;103892.94;;;4.65;70.61
72414;BME280;60995;52.154;4.498;2023-01-24T00:34:25;103886.22;;;4.92;69.95
72414;BME280;60995;52.154;4.498;2023-01-24T00:36:41;103888.38;;;4.70;69.78
72414;BME280;60995;52.154;4.498;2023-01-24T00:38:57;103884.28;;;4.44;70.97
72414;BME280;60995;52.154;4.498;2023-01-24T00:41:13;103884.16;;;4.52;70.57
72414;BME280;60995;52.154;4.498;2023-01-24T00:43:29;103882.41;;;4.51;70.64
72414;BME280;60995;52.154;4.498;2023-01-24T00:45:46;103880.50;;;4.59;70.45
72414;BME280;60995;52.154;4.498;2023-01-24T00:48:02;103886.75;;;4.60;70.45
72414;BME280;60995;52.154;4.498;2023-01-24T00:50:19;103879.34;;;4.74;70.20
72414;BME280;60995;52.154;4.498;2023-01-24T00:52:35;103881.91;;;4.82;70.37
72414;BME280;60995;52.154;4.498;2023-01-24T00:54:51;103879.19;;;4.84;69.57
72414;BME280;60995;52.154;4.498;2023-01-24T00:57:07;103876.53;;;4.82;69.77
72414;BME280;60995;52.154;4.498;2023-01-24T00:59:23;103874.09;;;4.65;70.74
72414;BME280;60995;52.154;4.498;2023-01-24T01:01:39;103874.88;;;4.75;70.26
72414;BME280;60995;52.154;4.498;2023-01-24T01:03:56;103874.22;;;4.57;70.56
72414;BME280;60995;52.154;4.498;2023-01-24T01:06:13;103870.72;;;4.54;70.60
72414;BME280;60995;52.154;4.498;2023-01-24T01:08:32;103869.91;;;4.49;71.39
72414;BME280;60995;52.154;4.498;2023-01-24T01:10:50;103873.78;;;4.87;69.81
72414;BME280;60995;52.154;4.498;2023-01-24T01:13:06;103875.97;;;4.63;69.87
72414;BME280;60995;52.154;4.498;2023-01-24T01:15:22;103873.16;;;4.71;69.93
72414;BME280;60995;52.154;4.498;2023-01-24T01:17:38;103869.72;;;4.59;71.17
72414;BME280;60995;52.154;4.498;2023-01-24T01:19:54;103876.72;;;4.71;69.95
72414;BME280;60995;52.154;4.498;2023-01-24T01:22:10;103867.00;;;4.61;70.28
72414;BME280;60995;52.154;4.498;2023-01-24T01:24:26;103873.13;;;4.72;70.17
72414;BME280;60995;52.154;4.498;2023-01-24T01:26:42;103870.22;;;4.85;70.25
72414;BME280;60995;52.154;4.498;2023-01-24T01:28:58;103876.56;;;4.80;69.92
72414;BME280;60995;52.154;4.498;2023-01-24T01:31:14;103883.28;;;4.52;70.61
72414;BME280;60995;52.154;4.498;2023-01-24T01:33:31;103876.88;;;4.60;69.95
72414;BME280;60995;52.154;4.498;2023-01-24T01:35:48;103871.75;;;4.42;70.10
72414;BME280;60995;52.154;4.498;2023-01-24T01:38:05;103867.22;;;4.49;70.24
72414;BME280;60995;52.154;4.498;2023-01-24T01:40:21;103877.13;;;4.45;69.66
72414;BME280;60995;52.154;4.498;2023-01-24T01:43:11;103874.34;;;4.50;69.84
72414;BME280;60995;52.154;4.498;2023-01-24T01:45:41;103873.19;;;4.68;69.79
72414;BME280;60995;52.154;4.498;2023-01-24T01:48:00;103872.25;;;4.70;69.55
72414;BME280;60995;52.154;4.498;2023-01-24T01:50:30;103862.97;;;4.88;68.69
72414;BME280;60995;52.154;4.498;2023-01-24T01:52:52;103874.03;;;4.71;68.28
72414;BME280;60995;52.154;4.498;2023-01-24T01:55:13;103871.28;;;4.76;68.50
72414;BME280;60995;52.154;4.498;2023-01-24T01:57:32;103871.38;;;4.68;68.49
72414;BME280;60995;52.154;4.498;2023-01-24T01:59:51;103871.81;;;4.39;69.51
72414;BME280;60995;52.154;4.498;2023-01-24T02:02:11;103865.56;;;4.38;69.78
72414;BME280;60995;52.154;4.498;2023-01-24T02:04:35;103870.06;;;4.36;69.60
72414;BME280;60995;52.154;4.498;2023-01-24T02:06:54;103864.34;;;4.59;69.44
72414;BME280;60995;52.154;4.498;2023-01-24T02:09:18;103858.31;;;4.43;69.82
72414;BME280;60995;52.154;4.498;2023-01-24T02:11:38;103853.56;;;4.61;69.85
72414;BME280;60995;52.154;4.498;2023-01-24T02:13:54;103854.47;;;4.60;69.40
72414;BME280;60995;52.154;4.498;2023-01-24T02:16:31;103855.59;;;4.45;69.68
72414;BME280;60995;52.154;4.498;2023-01-24T02:18:47;103854.28;;;4.72;69.00
72414;BME280;60995;52.154;4.498;2023-01-24T02:21:04;103851.50;;;4.77;68.61
72414;BME280;60995;52.154;4.498;2023-01-24T02:23:28;103854.84;;;4.35;70.20
72414;BME280;60995;52.154;4.498;2023-01-24T02:26:08;103852.81;;;4.53;69.03
72414;BME280;60995;52.154;4.498;2023-01-24T02:28:24;103857.88;;;4.71;68.69
72414;BME280;60995;52.154;4.498;2023-01-24T02:30:40;103863.47;;;4.59;69.09
72414;BME280;60995;52.154;4.498;2023-01-24T02:32:56;103859.50;;;4.24;69.52
72414;BME280;60995;52.154;4.498;2023-01-24T02:35:23;103858.69;;;4.19;70.60
72414;BME280;60995;52.154;4.498;2023-01-24T02:37:44;103856.47;;;4.49;69.99
72414;BME280;60995;52.154;4.498;2023-01-24T02:40:02;103861.16;;;4.33;70.10
72414;BME280;60995;52.154;4.498;2023-01-24T02:42:27;103859.16;;;4.45;69.80
72414;BME280;60995;52.154;4.498;2023-01-24T02:45:10;103865.53;;;4.40;69.90
72414;BME280;60995;52.154;4.498;2023-01-24T02:47:37;103862.75;;;4.44;68.97
72414;BME280;60995;52.154;4.498;2023-01-24T02:49:58;103863.00;;;4.30;69.22
72414;BME280;60995;52.154;4.498;2023-01-24T02:52:15;103856.56;;;4.39;69.15
72414;BME280;60995;52.154;4.498;2023-01-24T02:54:51;103858.47;;;4.33;69.52
72414;BME280;60995;52.154;4.498;2023-01-24T02:57:26;103852.88;;;4.46;68.94
72414;BME280;60995;52.154;4.498;2023-01-24T03:00:01;103850.97;;;4.55;68.73
72414;BME280;60995;52.154;4.498;2023-01-24T03:02:30;103852.13;;;4.37;69.86
72414;BME280;60995;52.154;4.498;2023-01-24T03:04:46;103856.41;;;4.52;69.15
72414;BME280;60995;52.154;4.498;2023-01-24T03:07:02;103854.69;;;4.47;69.54
72414;BME280;60995;52.154;4.498;2023-01-24T03:09:18;103852.13;;;4.37;69.66
72414;BME280;60995;52.154;4.498;2023-01-24T03:11:35;103850.16;;;4.51;69.12
72414;BME280;60995;52.154;4.498;2023-01-24T03:13:51;103851.13;;;4.44;69.75
72414;BME280;60995;52.154;4.498;2023-01-24T03:16:26;103846.75;;;4.38;69.93
72414;BME280;60995;52.154;4.498;2023-01-24T03:19:00;103846.53;;;4.52;69.73
72414;BME280;60995;52.154;4.498;2023-01-24T03:21:36;103847.34;;;4.59;69.50
72414;BME280;60995;52.154;4.498;2023-01-24T03:24:11;103848.53;;;4.38;70.43
72414;BME280;60995;52.154;4.498;2023-01-24T03:26:45;103840.44;;;4.39;71.03
72414;BME280;60995;52.154;4.498;2023-01-24T03:29:20;103837.69;;;4.44;70.24
72414;BME280;60995;52.154;4.498;2023-01-24T03:31:55;103832.44;;;4.36;69.85
72414;BME280;60995;52.154;4.498;2023-01-24T03:34:30;103832.28;;;4.45;69.63
72414;BME280;60995;52.154;4.498;2023-01-24T03:36:47;103835.13;;;4.36;70.19
72414;BME280;60995;52.154;4.498;2023-01-24T03:39:03;103841.19;;;4.49;69.22
72414;BME280;60995;52.154;4.498;2023-01-24T03:41:37;103831.59;;;4.31;70.08
72414;BME280;60995;52.154;4.498;2023-01-24T03:43:53;103841.16;;;4.51;69.51
72414;BME280;60995;52.154;4.498;2023-01-24T03:46:09;103845.81;;;4.39;69.72
72414;BME280;60995;52.154;4.498;2023-01-24T03:48:25;103840.56;;;4.30;70.41
72414;BME280;60995;52.154;4.498;2023-01-24T03:50:52;103844.88;;;4.42;69.46
72414;BME280;60995;52.154;4.498;2023-01-24T03:53:28;103848.53;;;4.38;69.29
72414;BME280;60995;52.154;4.498;2023-01-24T03:55:45;103850.16;;;4.48;69.41
72414;BME280;60995;52.154;4.498;2023-01-24T03:58:02;103847.31;;;4.60;68.84
72414;BME280;60995;52.154;4.498;2023-01-24T04:00:19;103849.06;;;4.61;68.75
72414;BME280;60995;52.154;4.498;2023-01-24T04:02:35;103844.84;;;4.45;68.95
72414;BME280;60995;52.154;4.498;2023-01-24T04:04:51;103840.50;;;4.36;69.43
72414;BME280;60995;52.154;4.498;2023-01-24T04:07:26;103853.94;;;4.36;69.65
72414;BME280;60995;52.154;4.498;2023-01-24T04:09:43;103849.75;;;4.17;69.82
72414;BME280;60995;52.154;4.498;2023-01-24T04:11:59;103844.16;;;4.32;69.68
72414;BME280;60995;52.154;4.498;2023-01-24T04:14:18;103848.47;;;4.42;69.90
72414;BME280;60995;52.154;4.498;2023-01-24T04:16:34;103843.56;;;4.10;70.89
72414;BME280;60995;52.154;4.498;2023-01-24T04:18:50;103836.97;;;4.34;69.97
72414;BME280;60995;52.154;4.498;2023-01-24T04:21:06;103841.00;;;4.61;69.17
72414;BME280;60995;52.154;4.498;2023-01-24T04:23:22;103854.63;;;4.51;69.86
72414;BME280;60995;52.154;4.498;2023-01-24T04:25:38;103843.69;;;4.61;69.05
72414;BME280;60995;52.154;4.498;2023-01-24T04:27:55;103842.91;;;4.55;69.39
72414;BME280;60995;52.154;4.498;2023-01-24T04:30:12;103845.03;;;4.33;70.77
72414;BME280;60995;52.154;4.498;2023-01-24T04:32:30;103847.38;;;4.56;69.16
72414;BME280;60995;52.154;4.498;2023-01-24T04:34:46;103856.19;;;4.64;68.41
72414;BME280;60995;52.154;4.498;2023-01-24T04:37:02;103853.13;;;4.31;69.75
72414;BME280;60995;52.154;4.498;2023-01-24T04:39:18;103854.13;;;4.22;70.29
72414;BME280;60995;52.154;4.498;2023-01-24T04:41:34;103851.34;;;4.30;70.90
72414;BME280;60995;52.154;4.498;2023-01-24T04:43:50;103857.41;;;4.43;69.56
72414;BME280;60995;52.154;4.498;2023-01-24T04:46:06;103856.63;;;4.36;70.04
72414;BME280;60995;52.154;4.498;2023-01-24T04:48:22;103860.06;;;4.44;69.98
72414;BME280;60995;52.154;4.498;2023-01-24T04:50:38;103857.09;;;4.64;69.54
72414;BME280;60995;52.154;4.498;2023-01-24T04:52:54;103854.31;;;4.71;69.17
72414;BME280;60995;52.154;4.498;2023-01-24T04:55:11;103860.06;;;4.44;69.23
72414;BME280;60995;52.154;4.498;2023-01-24T04:57:27;103864.78;;;4.32;70.38
72414;BME280;60995;52.154;4.498;2023-01-24T04:59:43;103853.91;;;4.38;69.74
72414;BME280;60995;52.154;4.498;2023-01-24T05:01:59;103856.47;;;4.49;69.61
72414;BME280;60995;52.154;4.498;2023-01-24T05:04:15;103865.81;;;4.20;70.06
72414;BME280;60995;52.154;4.498;2023-01-24T05:06:31;103866.88;;;4.09;70.18
72414;BME280;60995;52.154;4.498;2023-01-24T05:08:48;103864.13;;;4.12;69.92
72414;BME280;60995;52.154;4.498;2023-01-24T05:11:04;103862.88;;;4.38;69.42
72414;BME280;60995;52.154;4.498;2023-01-24T05:13:21;103860.22;;;4.35;69.27
72414;BME280;60995;52.154;4.498;2023-01-24T05:15:37;103859.44;;;4.27;68.86
72414;BME280;60995;52.154;4.498;2023-01-24T05:17:53;103866.16;;;3.96;69.78
72414;BME280;60995;52.154;4.498;2023-01-24T05:20:09;103873.03;;;4.18;69.77
72414;BME280;60995;52.154;4.498;2023-01-24T05:22:26;103875.72;;;4.18;69.65
72414;BME280;60995;52.154;4.498;2023-01-24T05:24:42;103879.91;;;4.37;69.48
72414;BME280;60995;52.154;4.498;2023-01-24T05:26:58;103868.38;;;4.30;69.08
72414;BME280;60995;52.154;4.498;2023-01-24T05:29:15;103867.91;;;3.99;69.73
72414;BME280;60995;52.154;4.498;2023-01-24T05:31:31;103882.06;;;4.12;70.24
72414;BME280;60995;52.154;4.498;2023-01-24T05:33:47;103878.41;;;4.14;70.42
72414;BME280;60995;52.154;4.498;2023-01-24T05:36:07;103880.44;;;3.97;70.72
72414;BME280;60995;52.154;4.498;2023-01-24T05:38:25;103886.59;;;4.08;70.71
72414;BME280;60995;52.154;4.498;2023-01-24T05:40:41;103884.38;;;4.37;69.61
72414;BME280;60995;52.154;4.498;2023-01-24T05:42:57;103879.97;;;4.33;69.72
72414;BME280;60995;52.154;4.498;2023-01-24T05:45:13;103884.53;;;4.29;69.98
72414;BME280;60995;52.154;4.498;2023-01-24T05:47:29;103883.78;;;4.14;70.52
72414;BME280;60995;52.154;4.498;2023-01-24T05:49:46;103880.00;;;4.31;69.82
72414;BME280;60995;52.154;4.498;2023-01-24T05:52:02;103880.06;;;4.25;69.48
72414;BME280;60995;52.154;4.498;2023-01-24T05:54:18;103874.88;;;4.12;70.27
72414;BME280;60995;52.154;4.498;2023-01-24T05:56:34;103878.47;;;4.11;70.21
72414;BME280;60995;52.154;4.498;2023-01-24T05:58:50;103877.72;;;4.02;70.42
72414;BME280;60995;52.154;4.498;2023-01-24T06:01:16;103883.31;;;3.83;71.15
72414;BME280;60995;52.154;4.498;2023-01-24T06:03:33;103889.66;;;3.77;71.49
72414;BME280;60995;52.154;4.498;2023-01-24T06:05:52;103876.69;;;4.10;69.94
72414;BME280;60995;52.154;4.498;2023-01-24T06:08:09;103877.50;;;4.17;70.30
72414;BME280;60995;52.154;4.498;2023-01-24T06:10:25;103878.22;;;4.30;69.37
72414;BME280;60995;52.154;4.498;2023-01-24T06:12:41;103883.44;;;4.42;69.73
72414;BME280;60995;52.154;4.498;2023-01-24T06:14:57;103896.91;;;4.39;69.55
72414;BME280;60995;52.154;4.498;2023-01-24T06:17:13;103893.41;;;4.33;69.76
72414;BME280;60995;52.154;4.498;2023-01-24T06:19:29;103891.75;;;4.24;70.69
72414;BME280;60995;52.154;4.498;2023-01-24T06:21:49;103884.53;;;4.29;70.57
72414;BME280;60995;52.154;4.498;2023-01-24T06:24:26;103888.22;;;4.20;69.59
72414;BME280;60995;52.154;4.498;2023-01-24T06:26:42;103893.09;;;3.89;70.94
72414;BME280;60995;52.154;4.498;2023-01-24T06:28:58;103890.31;;;3.95;71.55
72414;BME280;60995;52.154;4.498;2023-01-24T06:39:18;103897.91;;;4.32;70.80
72414;BME280;60995;52.154;4.498;2023-01-24T06:41:36;103908.19;;;4.01;71.33
72414;BME280;60995;52.154;4.498;2023-01-24T06:43:52;103915.41;;;3.92;71.08
72414;BME280;60995;52.154;4.498;2023-01-24T06:46:08;103911.81;;;3.96;71.83
72414;BME280;60995;52.154;4.498;2023-01-24T06:48:25;103910.97;;;3.93;71.75
72414;BME280;60995;52.154;4.498;2023-01-24T06:50:41;103910.97;;;3.93;72.01
72414;BME280;60995;52.154;4.498;2023-01-24T06:52:57;103905.34;;;4.11;71.92
72414;BME280;60995;52.154;4.498;2023-01-24T06:55:13;103908.94;;;4.12;71.34
72414;BME280;60995;52.154;4.498;2023-01-24T06:57:30;103916.22;;;4.02;71.90
72414;BME280;60995;52.154;4.498;2023-01-24T06:59:46;103911.13;;;3.77;71.96
72414;BME280;60995;52.154;4.498;2023-01-24T07:02:02;103914.88;;;3.61;73.38
72414;BME280;60995;52.154;4.498;2023-01-24T07:04:18;103912.94;;;3.75;72.68
72414;BME280;60995;52.154;4.498;2023-01-24T07:06:34;103907.56;;;3.78;72.37
72414;BME280;60995;52.154;4.498;2023-01-24T07:08:50;103909.03;;;4.04;71.36
72414;BME280;60995;52.154;4.498;2023-01-24T07:11:06;103912.75;;;3.94;72.49
72414;BME280;60995;52.154;4.498;2023-01-24T07:13:22;103913.53;;;4.02;71.74
72414;BME280;60995;52.154;4.498;2023-01-24T07:15:38;103911.72;;;4.03;71.78
72414;BME280;60995;52.154;4.498;2023-01-24T07:17:54;103907.91;;;4.21;70.97
72414;BME280;60995;52.154;4.498;2023-01-24T07:20:11;103917.38;;;3.78;72.19
72414;BME280;60995;52.154;4.498;2023-01-24T07:22:28;103928.28;;;3.66;73.34
72414;BME280;60995;52.154;4.498;2023-01-24T07:24:44;103924.31;;;4.01;71.62
72414;BME280;60995;52.154;4.498;2023-01-24T07:27:02;103917.13;;;4.01;71.68
72414;BME280;60995;52.154;4.498;2023-01-24T07:29:18;103926.03;;;4.05;71.61
72414;BME280;60995;52.154;4.498;2023-01-24T07:31:35;103919.97;;;3.89;72.22
72414;BME280;60995;52.154;4.498;2023-01-24T07:33:51;103917.84;;;4.16;71.83
72414;BME280;60995;52.154;4.498;2023-01-24T07:36:11;103927.78;;;4.07;71.38
72414;BME280;60995;52.154;4.498;2023-01-24T07:38:28;103930.44;;;4.10;71.43
72414;BME280;60995;52.154;4.498;2023-01-24T07:40:44;103927.91;;;3.98;71.09
72414;BME280;60995;52.154;4.498;2023-01-24T07:43:00;103922.28;;;4.18;71.01
72414;BME280;60995;52.154;4.498;2023-01-24T07:45:17;103937.78;;;3.96;71.56
72414;BME280;60995;52.154;4.498;2023-01-24T07:47:33;103943.56;;;3.59;72.83
72414;BME280;60995;52.154;4.498;2023-01-24T07:49:49;103944.06;;;3.93;71.94
72414;BME280;60995;52.154;4.498;2023-01-24T07:52:05;103937.03;;;3.81;72.47
72414;BME280;60995;52.154;4.498;2023-01-24T07:54:21;103946.66;;;4.04;71.88
72414;BME280;60995;52.154;4.498;2023-01-24T07:56:37;103953.00;;;3.97;72.19
72414;BME280;60995;52.154;4.498;2023-01-24T07:58:53;103950.47;;;3.81;72.71
72414;BME280;60995;52.154;4.498;2023-01-24T08:01:17;103947.59;;;3.98;72.10
72414;BME280;60995;52.154;4.498;2023-01-24T08:03:34;103943.16;;;3.94;72.39
72414;BME280;60995;52.154;4.498;2023-01-24T08:05:50;103944.81;;;4.09;72.19
72414;BME280;60995;52.154;4.498;2023-01-24T08:08:06;103953.91;;;3.96;72.23
72414;BME280;60995;52.154;4.498;2023-01-24T08:10:22;103959.53;;;3.74;72.49
72414;BME280;60995;52.154;4.498;2023-01-24T08:12:38;103960.44;;;3.70;73.13
72414;BME280;60995;52.154;4.498;2023-01-24T08:14:55;103955.63;;;4.03;71.60
72414;BME280;60995;52.154;4.498;2023-01-24T08:17:11;103954.78;;;3.98;71.96
72414;BME280;60995;52.154;4.498;2023-01-24T08:19:27;103965.22;;;4.23;71.67
72414;BME280;60995;52.154;4.498;2023-01-24T08:21:43;103960.09;;;4.03;72.02
72414;BME280;60995;52.154;4.498;2023-01-24T08:23:59;103961.97;;;3.94;71.72
72414;BME280;60995;52.154;4.498;2023-01-24T08:26:15;103971.88;;;3.91;71.68
72414;BME280;60995;52.154;4.498;2023-01-24T08:28:31;103961.28;;;3.78;71.34
72414;BME280;60995;52.154;4.498;2023-01-24T08:30:48;103966.66;;;3.75;72.36
72414;BME280;60995;52.154;4.498;2023-01-24T08:33:05;103971.50;;;4.22;71.55
72414;BME280;60995;52.154;4.498;2023-01-24T08:35:21;103976.28;;;3.98;71.24
72414;BME280;60995;52.154;4.498;2023-01-24T08:37:38;103971.88;;;3.91;71.97
72414;BME280;60995;52.154;4.498;2023-01-24T08:39:54;103975.28;;;4.05;72.31
72414;BME280;60995;52.154;4.498;2023-01-24T08:42:12;103976.97;;;4.16;72.34
72414;BME280;60995;52.154;4.498;2023-01-24T08:44:28;103984.28;;;4.04;70.95
72414;BME280;60995;52.154;4.498;2023-01-24T08:46:44;103980.06;;;3.78;72.08
72414;BME280;60995;52.154;4.498;2023-01-24T08:49:01;103995.28;;;3.79;72.28
72414;BME280;60995;52.154;4.498;2023-01-24T08:51:18;103980.69;;;4.02;71.68
72414;BME280;60995;52.154;4.498;2023-01-24T08:53:34;103982.72;;;3.81;71.58
72414;BME280;60995;52.154;4.498;2023-01-24T08:55:50;103988.13;;;3.78;72.18
72414;BME280;60995;52.154;4.498;2023-01-24T08:58:07;103987.97;;;3.91;71.85
72414;BME280;60995;52.154;4.498;2023-01-24T09:00:23;103980.00;;;3.83;71.53
72414;BME280;60995;52.154;4.498;2023-01-24T09:02:39;103989.94;;;3.76;72.74
72414;BME280;60995;52.154;4.498;2023-01-24T09:04:55;103996.31;;;3.64;73.97
72414;BME280;60995;52.154;4.498;2023-01-24T09:07:11;103996.19;;;3.75;72.71
72414;BME280;60995;52.154;4.498;2023-01-24T09:09:27;104004.09;;;3.91;71.99
72414;BME280;60995;52.154;4.498;2023-01-24T09:11:44;103996.22;;;3.74;72.60
72414;BME280;60995;52.154;4.498;2023-01-24T09:14:00;104000.72;;;3.73;73.01
72414;BME280;60995;52.154;4.498;2023-01-24T09:16:16;104005.53;;;3.31;74.38
72414;BME280;60995;52.154;4.498;2023-01-24T09:18:32;104000.25;;;3.25;74.37
72414;BME280;60995;52.154;4.498;2023-01-24T09:20:48;103999.09;;;3.51;73.72
72414;BME280;60995;52.154;4.498;2023-01-24T09:23:08;103997.13;;;3.73;73.17
72414;BME280;60995;52.154;4.498;2023-01-24T09:25:25;103997.72;;;4.01;72.60
72414;BME280;60995;52.154;4.498;2023-01-24T09:27:41;103998.72;;;3.91;72.68
72414;BME280;60995;52.154;4.498;2023-01-24T09:29:57;104001.00;;;4.29;71.69
72414;BME280;60995;52.154;4.498;2023-01-24T09:32:13;103999.44;;;4.08;72.91
72414;BME280;60995;52.154;4.498;2023-01-24T09:34:29;103995.53;;;4.36;71.40
72414;BME280;60995;52.154;4.498;2023-01-24T09:36:46;103996.91;;;3.94;72.27
72414;BME280;60995;52.154;4.498;2023-01-24T09:39:03;104001.16;;;4.14;72.31
72414;BME280;60995;52.154;4.498;2023-01-24T09:44:03;104010.19;;;4.10;71.17
72414;BME280;60995;52.154;4.498;2023-01-24T09:46:37;104021.75;;;4.17;71.97
72414;BME280;60995;52.154;4.498;2023-01-24T09:49:03;104016.53;;;4.01;72.72
72414;BME280;60995;52.154;4.498;2023-01-24T09:51:29;104019.25;;;3.98;72.37
72414;BME280;60995;52.154;4.498;2023-01-24T09:53:51;104012.72;;;4.22;72.37
72414;BME280;60995;52.154;4.498;2023-01-24T09:56:21;104021.53;;;4.34;71.56
72414;BME280;60995;52.154;4.498;2023-01-24T09:58:53;104008.47;;;4.04;71.77
72414;BME280;60995;52.154;4.498;2023-01-24T10:01:25;104016.38;;;4.17;71.87
72414;BME280;60995;52.154;4.498;2023-01-24T10:03:41;104021.09;;;3.93;72.38
72414;BME280;60995;52.154;4.498;2023-01-24T10:05:58;104016.44;;;4.10;71.93
72414;BME280;60995;52.154;4.498;2023-01-24T10:10:40;104034.88;;;3.57;73.06
72414;BME280;60995;52.154;4.498;2023-01-24T10:22:59;104028.34;;;3.83;73.09
72414;BME280;60995;52.154;4.498;2023-01-24T10:28:04;104019.91;;;4.22;71.64
72414;BME280;60995;52.154;4.498;2023-01-24T10:33:11;104019.72;;;4.37;71.43
72414;BME280;60995;52.154;4.498;2023-01-24T10:35:36;104026.16;;;4.22;71.48
72414;BME280;60995;52.154;4.498;2023-01-24T10:38:00;104012.91;;;4.07;72.24
72414;BME280;60995;52.154;4.498;2023-01-24T10:40:22;104013.00;;;3.99;72.25
72414;BME280;60995;52.154;4.498;2023-01-24T10:42:43;104014.84;;;3.91;72.38
72414;BME280;60995;52.154;4.498;2023-01-24T10:50:01;104009.41;;;3.97;71.64
72414;BME280;60995;52.154;4.498;2023-01-24T10:52:21;104008.72;;;3.79;72.71
72414;BME280;60995;52.154;4.498;2023-01-24T10:54:44;103998.56;;;4.06;71.34
72414;BME280;60995;52.154;4.498;2023-01-24T10:57:54;104004.47;;;3.54;72.68
72414;BME280;60995;52.154;4.498;2023-01-24T10:59:53;103994.44;;;3.73;72.47
72414;BME280;60995;52.154;4.498;2023-01-24T11:02:18;104004.19;;;3.81;72.89
72414;BME280;60995;52.154;4.498;2023-01-24T11:04:37;103999.81;;;3.71;72.06
72414;BME280;60995;52.154;4.498;2023-01-24T11:06:53;104002.16;;;4.05;71.00
72414;BME280;60995;52.154;4.498;2023-01-24T11:09:10;103999.31;;;4.19;70.52
72414;BME280;60995;52.154;4.498;2023-01-24T11:11:29;103995.81;;;4.12;71.81
72414;BME280;60995;52.154;4.498;2023-01-24T11:13:47;103988.03;;;3.88;71.81
72414;BME280;60995;52.154;4.498;2023-01-24T11:18:31;103987.22;;;3.79;72.78
72414;BME280;60995;52.154;4.498;2023-01-24T11:23:26;103986.56;;;3.53;73.11
72414;BME280;60995;52.154;4.498;2023-01-24T11:25:53;103979.28;;;3.67;72.72
72414;BME280;60995;52.154;4.498;2023-01-24T11:28:22;103977.53;;;3.63;72.76
72414;BME280;60995;52.154;4.498;2023-01-24T11:30:48;103973.66;;;3.92;72.55
72414;BME280;60995;52.154;4.498;2023-01-24T11:35:52;103976.47;;;3.78;72.99
72414;BME280;60995;52.154;4.498;2023-01-24T11:40:57;103972.81;;;3.87;71.50
72414;BME280;60995;52.154;4.498;2023-01-24T11:48:30;103965.41;;;4.07;72.45
72414;BME280;60995;52.154;4.498;2023-01-24T12:00:35;103969.78;;;4.14;71.90
72414;BME280;60995;52.154;4.498;2023-01-24T12:03:09;103950.38;;;3.91;72.17
72414;BME280;60995;52.154;4.498;2023-01-24T12:10:59;103949.94;;;4.28;70.21
72414;BME280;60995;52.154;4.498;2023-01-24T12:21:43;103924.44;;;3.87;72.30
72414;BME280;60995;52.154;4.498;2023-01-24T12:26:32;103925.09;;;4.07;70.80
72414;BME280;60995;52.154;4.498;2023-01-24T12:31:23;103907.66;;;4.41;69.98
72414;BME280;60995;52.154;4.498;2023-01-24T12:33:50;103912.56;;;4.09;71.48
72414;BME280;60995;52.154;4.498;2023-01-24T12:36:16;103904.97;;;4.39;70.49
72414;BME280;60995;52.154;4.498;2023-01-24T12:38:45;103904.44;;;4.12;71.00
72414;BME280;60995;52.154;4.498;2023-01-24T12:41:24;103906.63;;;3.81;72.03
72414;BME280;60995;52.154;4.498;2023-01-24T12:46:58;103905.22;;;4.21;71.82
72414;BME280;60995;52.154;4.498;2023-01-24T12:49:27;103908.94;;;4.10;71.01
72414;BME280;60995;52.154;4.498;2023-01-24T12:51:53;103908.66;;;4.32;70.37
72414;BME280;60995;52.154;4.498;2023-01-24T12:54:19;103905.22;;;4.21;70.84
72414;BME280;60995;52.154;4.498;2023-01-24T12:56:46;103899.63;;;4.36;70.27
72414;BME280;60995;52.154;4.498;2023-01-24T12:59:08;103904.34;;;4.20;70.34
72414;BME280;60995;52.154;4.498;2023-01-24T13:01:33;103909.88;;;4.08;70.60
72414;BME280;60995;52.154;4.498;2023-01-24T13:07:05;103887.16;;;4.32;71.52
72414;BME280;60995;52.154;4.498;2023-01-24T13:11:52;103886.59;;;4.05;70.99
72414;BME280;60995;52.154;4.498;2023-01-24T13:14:16;103882.31;;;3.92;72.37
72414;BME280;60995;52.154;4.498;2023-01-24T13:19:25;103882.31;;;3.92;70.96
72414;BME280;60995;52.154;4.498;2023-01-24T13:32:45;103877.72;;;4.02;71.20
72414;BME280;60995;52.154;4.498;2023-01-24T13:35:03;103877.38;;;4.26;70.11
72414;BME280;60995;52.154;4.498;2023-01-24T13:37:31;103877.03;;;4.51;69.52
72414;BME280;60995;52.154;4.498;2023-01-24T13:39:58;103879.91;;;4.37;71.39
72414;BME280;60995;52.154;4.498;2023-01-24T13:42:21;103872.25;;;4.09;71.61
72414;BME280;60995;52.154;4.498;2023-01-24T13:44:39;103873.41;;;3.87;71.84
72414;BME280;60995;52.154;4.498;2023-01-24T13:46:56;103874.47;;;4.43;70.21
72414;BME280;60995;52.154;4.498;2023-01-24T13:49:18;103875.13;;;3.94;72.15
72414;BME280;60995;52.154;4.498;2023-01-24T13:51:47;103868.19;;;3.76;72.27
72414;BME280;60995;52.154;4.498;2023-01-24T13:54:06;103871.91;;;4.34;70.70
72414;BME280;60995;52.154;4.498;2023-01-24T13:56:35;103870.41;;;4.11;71.68
72414;BME280;60995;52.154;4.498;2023-01-24T13:59:32;103871.56;;;3.92;72.65